KPIM/PIM METAR and TAF weather

Enter ICAO airport designator
Station Type Date Time Source
KPIM METAR 2020/01/22 21:15 UTC NOAA

KPIM 222115Z AUTO 05005KT 10SM CLR 11/M12 A3025 RMK AO2 T01081118


Station Type Date Time Source
KPIM Decoded METAR 2020/01/22 21:15 UTC NOAA

Station name not available
Jan 22, 2020 - 04:15 PM EST / 2020.01.22 2115 UTC
Wind: from the NE (050 degrees) at 6 MPH (5 KT):0
Visibility: 10 mile(s):0
Sky conditions: clear
Temperature: 51.4 F (10.8 C)
Dew Point: 10.8 F (-11.8 C)
Relative Humidity: 19%
Pressure (altimeter): 30.25 in. Hg (1024 hPa)
ob: KPIM 222115Z AUTO 05005KT 10SM CLR 11/M12 A3025 RMK AO2 T01081118
cycle: 21

Station Type Date Time Source
KPIM TAF UTC NOAA

Error!

Example: see airport list